sensor_id;sensor_type;location;lat;lon;timestamp;pressure;altitude;pressure_sealevel;temperature;humidity
54042;BME280;41156;51.508;5.406;2023-03-26T00:00:55;100605.47;;;7.96;100.00
54042;BME280;41156;51.508;5.406;2023-03-26T00:03:56;100601.91;;;7.89;100.00
54042;BME280;41156;51.508;5.406;2023-03-26T00:06:57;100606.44;;;7.82;100.00
54042;BME280;41156;51.508;5.406;2023-03-26T00:09:58;100607.66;;;7.79;100.00
54042;BME280;41156;51.508;5.406;2023-03-26T00:12:58;100602.25;;;7.72;100.00
54042;BME280;41156;51.508;5.406;2023-03-26T00:15:59;100596.88;;;7.66;100.00
54042;BME280;41156;51.508;5.406;2023-03-26T00:19:01;100603.88;;;7.60;100.00
54042;BME280;41156;51.508;5.406;2023-03-26T00:22:01;100604.47;;;7.55;100.00
54042;BME280;41156;51.508;5.406;2023-03-26T00:25:02;100594.31;;;7.51;100.00
54042;BME280;41156;51.508;5.406;2023-03-26T00:28:03;100597.63;;;7.46;100.00
54042;BME280;41156;51.508;5.406;2023-03-26T00:31:08;100595.75;;;7.40;100.00
54042;BME280;41156;51.508;5.406;2023-03-26T00:34:09;100588.28;;;7.35;100.00
54042;BME280;41156;51.508;5.406;2023-03-26T00:37:09;100581.84;;;7.30;100.00
54042;BME280;41156;51.508;5.406;2023-03-26T00:40:11;100581.41;;;7.26;100.00
54042;BME280;41156;51.508;5.406;2023-03-26T00:43:12;100578.47;;;7.21;100.00
54042;BME280;41156;51.508;5.406;2023-03-26T00:46:18;100581.78;;;7.16;100.00
54042;BME280;41156;51.508;5.406;2023-03-26T00:49:18;100574.13;;;7.13;100.00
54042;BME280;41156;51.508;5.406;2023-03-26T00:52:19;100573.91;;;7.15;100.00
54042;BME280;41156;51.508;5.406;2023-03-26T00:55:22;100570.19;;;7.16;100.00
54042;BME280;41156;51.508;5.406;2023-03-26T00:58:22;100571.47;;;7.20;100.00
54042;BME280;41156;51.508;5.406;2023-03-26T01:01:24;100570.66;;;7.26;100.00
54042;BME280;41156;51.508;5.406;2023-03-26T01:04:30;100559.69;;;7.28;100.00
54042;BME280;41156;51.508;5.406;2023-03-26T01:07:33;100550.81;;;7.27;100.00
54042;BME280;41156;51.508;5.406;2023-03-26T01:10:34;100540.03;;;7.20;100.00
54042;BME280;41156;51.508;5.406;2023-03-26T01:13:39;100540.81;;;7.14;100.00
54042;BME280;41156;51.508;5.406;2023-03-26T01:16:50;100538.94;;;7.08;100.00
54042;BME280;41156;51.508;5.406;2023-03-26T01:20:09;100535.19;;;7.02;100.00
54042;BME280;41156;51.508;5.406;2023-03-26T01:23:16;100526.06;;;6.97;100.00
54042;BME280;41156;51.508;5.406;2023-03-26T01:33:16;100512.16;;;6.80;100.00
54042;BME280;41156;51.508;5.406;2023-03-26T01:36:30;100499.31;;;6.75;100.00
54042;BME280;41156;51.508;5.406;2023-03-26T01:39:50;100494.53;;;6.71;100.00
54042;BME280;41156;51.508;5.406;2023-03-26T01:43:15;100500.72;;;6.64;100.00
54042;BME280;41156;51.508;5.406;2023-03-26T01:46:19;100499.63;;;6.59;100.00
54042;BME280;41156;51.508;5.406;2023-03-26T01:49:21;100492.16;;;6.54;100.00
54042;BME280;41156;51.508;5.406;2023-03-26T01:52:22;100495.88;;;6.53;100.00
54042;BME280;41156;51.508;5.406;2023-03-26T01:55:31;100487.16;;;6.51;100.00
54042;BME280;41156;51.508;5.406;2023-03-26T02:08:16;100468.38;;;6.51;100.00
54042;BME280;41156;51.508;5.406;2023-03-26T02:11:20;100460.31;;;6.51;100.00
54042;BME280;41156;51.508;5.406;2023-03-26T02:14:20;100464.47;;;6.54;100.00
54042;BME280;41156;51.508;5.406;2023-03-26T02:17:21;100449.41;;;6.53;100.00
54042;BME280;41156;51.508;5.406;2023-03-26T02:20:23;100443.00;;;6.54;100.00
54042;BME280;41156;51.508;5.406;2023-03-26T02:23:24;100439.31;;;6.55;100.00
54042;BME280;41156;51.508;5.406;2023-03-26T02:26:30;100444.47;;;6.56;100.00
54042;BME280;41156;51.508;5.406;2023-03-26T02:29:31;100437.88;;;6.59;100.00
54042;BME280;41156;51.508;5.406;2023-03-26T02:32:36;100436.84;;;6.60;100.00
54042;BME280;41156;51.508;5.406;2023-03-26T02:35:37;100435.00;;;6.60;100.00
54042;BME280;41156;51.508;5.406;2023-03-26T02:38:39;100430.91;;;6.64;100.00
54042;BME280;41156;51.508;5.406;2023-03-26T02:41:40;100430.66;;;6.66;100.00
54042;BME280;41156;51.508;5.406;2023-03-26T02:44:41;100432.16;;;6.69;100.00
54042;BME280;41156;51.508;5.406;2023-03-26T02:47:41;100418.31;;;6.72;100.00
54042;BME280;41156;51.508;5.406;2023-03-26T02:50:43;100408.81;;;6.76;100.00
54042;BME280;41156;51.508;5.406;2023-03-26T02:53:44;100407.41;;;6.80;100.00
54042;BME280;41156;51.508;5.406;2023-03-26T02:56:45;100398.97;;;6.83;100.00
54042;BME280;41156;51.508;5.406;2023-03-26T02:59:45;100396.88;;;6.85;100.00
54042;BME280;41156;51.508;5.406;2023-03-26T03:02:45;100393.81;;;6.88;100.00
54042;BME280;41156;51.508;5.406;2023-03-26T03:05:46;100394.22;;;6.92;100.00
54042;BME280;41156;51.508;5.406;2023-03-26T03:08:47;100384.91;;;6.94;100.00
54042;BME280;41156;51.508;5.406;2023-03-26T03:11:47;100374.81;;;6.96;100.00
54042;BME280;41156;51.508;5.406;2023-03-26T03:14:47;100370.28;;;6.97;100.00
54042;BME280;41156;51.508;5.406;2023-03-26T03:17:48;100368.00;;;7.00;100.00
54042;BME280;41156;51.508;5.406;2023-03-26T03:20:48;100368.63;;;7.02;100.00
54042;BME280;41156;51.508;5.406;2023-03-26T03:23:49;100361.22;;;7.04;100.00
54042;BME280;41156;51.508;5.406;2023-03-26T03:26:49;100358.09;;;7.08;100.00
54042;BME280;41156;51.508;5.406;2023-03-26T03:29:54;100350.69;;;7.10;100.00
54042;BME280;41156;51.508;5.406;2023-03-26T03:32:54;100351.28;;;7.12;100.00
54042;BME280;41156;51.508;5.406;2023-03-26T03:35:57;100348.41;;;7.13;100.00
54042;BME280;41156;51.508;5.406;2023-03-26T03:38:58;100344.47;;;7.16;100.00
54042;BME280;41156;51.508;5.406;2023-03-26T03:42:01;100338.88;;;7.17;100.00
54042;BME280;41156;51.508;5.406;2023-03-26T03:45:03;100337.06;;;7.18;100.00
54042;BME280;41156;51.508;5.406;2023-03-26T03:48:03;100341.16;;;7.20;100.00
54042;BME280;41156;51.508;5.406;2023-03-26T03:51:04;100331.88;;;7.23;100.00
54042;BME280;41156;51.508;5.406;2023-03-26T03:54:06;100323.81;;;7.23;100.00
54042;BME280;41156;51.508;5.406;2023-03-26T03:57:07;100333.50;;;7.24;100.00
54042;BME280;41156;51.508;5.406;2023-03-26T04:00:08;100318.03;;;7.26;100.00
54042;BME280;41156;51.508;5.406;2023-03-26T04:03:10;100315.97;;;7.28;100.00
54042;BME280;41156;51.508;5.406;2023-03-26T04:06:13;100311.22;;;7.30;100.00
54042;BME280;41156;51.508;5.406;2023-03-26T04:09:18;100306.44;;;7.32;100.00
54042;BME280;41156;51.508;5.406;2023-03-26T04:12:18;100302.72;;;7.33;100.00
54042;BME280;41156;51.508;5.406;2023-03-26T04:15:19;100289.50;;;7.32;100.00
54042;BME280;41156;51.508;5.406;2023-03-26T04:18:20;100276.88;;;7.32;100.00
54042;BME280;41156;51.508;5.406;2023-03-26T04:21:21;100268.81;;;7.32;100.00
54042;BME280;41156;51.508;5.406;2023-03-26T04:24:21;100260.75;;;7.32;100.00
54042;BME280;41156;51.508;5.406;2023-03-26T04:27:26;100259.13;;;7.31;100.00
54042;BME280;41156;51.508;5.406;2023-03-26T04:30:27;100256.44;;;7.31;100.00
54042;BME280;41156;51.508;5.406;2023-03-26T04:33:29;100248.38;;;7.31;100.00
54042;BME280;41156;51.508;5.406;2023-03-26T04:36:30;100249.78;;;7.34;100.00
54042;BME280;41156;51.508;5.406;2023-03-26T04:39:33;100238.22;;;7.33;100.00
54042;BME280;41156;51.508;5.406;2023-03-26T04:42:36;100235.75;;;7.32;100.00
54042;BME280;41156;51.508;5.406;2023-03-26T04:45:41;100229.56;;;7.31;100.00
54042;BME280;41156;51.508;5.406;2023-03-26T04:48:41;100224.19;;;7.31;100.00
54042;BME280;41156;51.508;5.406;2023-03-26T04:51:41;100217.56;;;7.27;100.00
54042;BME280;41156;51.508;5.406;2023-03-26T04:54:44;100210.53;;;7.26;100.00
54042;BME280;41156;51.508;5.406;2023-03-26T04:57:45;100206.41;;;7.23;100.00
54042;BME280;41156;51.508;5.406;2023-03-26T05:00:49;100203.31;;;7.20;100.00
54042;BME280;41156;51.508;5.406;2023-03-26T05:03:50;100200.00;;;7.18;100.00
54042;BME280;41156;51.508;5.406;2023-03-26T05:06:50;100197.53;;;7.16;100.00
54042;BME280;41156;51.508;5.406;2023-03-26T05:09:50;100195.03;;;7.15;100.00
54042;BME280;41156;51.508;5.406;2023-03-26T05:12:51;100186.97;;;7.15;100.00
54042;BME280;41156;51.508;5.406;2023-03-26T05:15:51;100180.56;;;7.16;100.00
54042;BME280;41156;51.508;5.406;2023-03-26T05:18:51;100177.47;;;7.19;100.00
54042;BME280;41156;51.508;5.406;2023-03-26T05:21:53;100178.91;;;7.21;100.00
54042;BME280;41156;51.508;5.406;2023-03-26T05:24:53;100168.56;;;7.25;100.00
54042;BME280;41156;51.508;5.406;2023-03-26T05:27:53;100169.19;;;7.27;100.00
54042;BME280;41156;51.508;5.406;2023-03-26T05:30:54;100159.88;;;7.30;100.00
54042;BME280;41156;51.508;5.406;2023-03-26T05:33:54;100158.63;;;7.32;100.00
54042;BME280;41156;51.508;5.406;2023-03-26T05:36:54;100158.41;;;7.34;100.00
54042;BME280;41156;51.508;5.406;2023-03-26T05:39:56;100160.88;;;7.35;100.00
54042;BME280;41156;51.508;5.406;2023-03-26T05:42:56;100146.44;;;7.36;100.00
54042;BME280;41156;51.508;5.406;2023-03-26T05:45:57;100144.34;;;7.38;100.00
54042;BME280;41156;51.508;5.406;2023-03-26T05:48:57;100141.44;;;7.40;100.00
54042;BME280;41156;51.508;5.406;2023-03-26T05:51:57;100139.56;;;7.40;100.00
54042;BME280;41156;51.508;5.406;2023-03-26T05:54:57;100137.50;;;7.43;100.00
54042;BME280;41156;51.508;5.406;2023-03-26T05:57:58;100135.66;;;7.43;100.00
54042;BME280;41156;51.508;5.406;2023-03-26T06:01:07;100127.59;;;7.43;100.00
54042;BME280;41156;51.508;5.406;2023-03-26T06:04:11;100125.13;;;7.41;100.00
54042;BME280;41156;51.508;5.406;2023-03-26T06:07:12;100116.66;;;7.38;100.00
54042;BME280;41156;51.508;5.406;2023-03-26T06:10:12;100112.91;;;7.39;100.00
54042;BME280;41156;51.508;5.406;2023-03-26T06:13:13;100108.59;;;7.38;100.00
54042;BME280;41156;51.508;5.406;2023-03-26T06:16:15;100111.28;;;7.38;100.00
54042;BME280;41156;51.508;5.406;2023-03-26T06:19:16;100098.88;;;7.37;100.00
54042;BME280;41156;51.508;5.406;2023-03-26T06:22:16;100093.69;;;7.35;100.00
54042;BME280;41156;51.508;5.406;2023-03-26T06:25:16;100099.88;;;7.36;100.00
54042;BME280;41156;51.508;5.406;2023-03-26T06:28:17;100099.69;;;7.37;100.00
54042;BME280;41156;51.508;5.406;2023-03-26T06:31:17;100095.75;;;7.40;100.00
54042;BME280;41156;51.508;5.406;2023-03-26T06:34:18;100093.28;;;7.38;100.00
54042;BME280;41156;51.508;5.406;2023-03-26T06:37:18;100098.66;;;7.38;100.00
54042;BME280;41156;51.508;5.406;2023-03-26T06:40:18;100098.44;;;7.40;100.00
54042;BME280;41156;51.508;5.406;2023-03-26T06:43:19;100101.53;;;7.44;100.00
54042;BME280;41156;51.508;5.406;2023-03-26T06:46:20;100097.81;;;7.45;100.00
54042;BME280;41156;51.508;5.406;2023-03-26T06:49:20;100101.31;;;7.45;100.00
54042;BME280;41156;51.508;5.406;2023-03-26T06:52:20;100095.72;;;7.47;100.00
54042;BME280;41156;51.508;5.406;2023-03-26T06:55:21;100098.41;;;7.47;100.00
54042;BME280;41156;51.508;5.406;2023-03-26T06:58:21;100104.63;;;7.47;100.00
54042;BME280;41156;51.508;5.406;2023-03-26T07:01:22;100104.81;;;7.46;100.00
54042;BME280;41156;51.508;5.406;2023-03-26T07:04:22;100099.44;;;7.46;100.00
54042;BME280;41156;51.508;5.406;2023-03-26T07:07:22;100102.13;;;7.46;100.00
54042;BME280;41156;51.508;5.406;2023-03-26T07:10:23;100105.25;;;7.43;100.00
54042;BME280;41156;51.508;5.406;2023-03-26T07:13:24;100095.13;;;7.45;100.00
54042;BME280;41156;51.508;5.406;2023-03-26T07:16:24;100090.34;;;7.47;100.00
54042;BME280;41156;51.508;5.406;2023-03-26T07:19:24;100089.34;;;7.48;100.00
54042;BME280;41156;51.508;5.406;2023-03-26T07:22:25;100086.41;;;7.49;100.00
54042;BME280;41156;51.508;5.406;2023-03-26T07:25:26;100080.00;;;7.50;100.00
54042;BME280;41156;51.508;5.406;2023-03-26T07:28:36;100076.50;;;7.50;100.00
54042;BME280;41156;51.508;5.406;2023-03-26T07:31:45;100069.03;;;7.52;100.00
54042;BME280;41156;51.508;5.406;2023-03-26T07:35:05;100068.59;;;7.55;100.00
54042;BME280;41156;51.508;5.406;2023-03-26T07:38:39;100062.41;;;7.54;100.00
54042;BME280;41156;51.508;5.406;2023-03-26T07:41:45;100067.56;;;7.56;100.00
54042;BME280;41156;51.508;5.406;2023-03-26T07:47:55;100066.09;;;7.60;100.00
54042;BME280;41156;51.508;5.406;2023-03-26T07:50:56;100061.31;;;7.62;100.00
54042;BME280;41156;51.508;5.406;2023-03-26T07:53:57;100058.63;;;7.62;100.00
54042;BME280;41156;51.508;5.406;2023-03-26T07:57:03;100060.31;;;7.63;100.00
54042;BME280;41156;51.508;5.406;2023-03-26T08:00:29;100053.03;;;7.64;100.00
54042;BME280;41156;51.508;5.406;2023-03-26T08:03:55;100052.41;;;7.68;100.00
54042;BME280;41156;51.508;5.406;2023-03-26T08:07:04;100048.66;;;7.69;100.00
54042;BME280;41156;51.508;5.406;2023-03-26T08:10:22;100054.25;;;7.74;100.00
54042;BME280;41156;51.508;5.406;2023-03-26T08:13:29;100051.09;;;7.77;100.00
54042;BME280;41156;51.508;5.406;2023-03-26T08:23:34;100044.81;;;7.90;100.00
54042;BME280;41156;51.508;5.406;2023-03-26T08:27:16;100048.97;;;7.93;100.00
54042;BME280;41156;51.508;5.406;2023-03-26T08:30:24;100038.59;;;7.96;100.00
54042;BME280;41156;51.508;5.406;2023-03-26T08:33:26;100037.31;;;7.99;100.00
54042;BME280;41156;51.508;5.406;2023-03-26T08:36:27;100042.03;;;8.04;100.00
54042;BME280;41156;51.508;5.406;2023-03-26T08:39:27;100038.09;;;8.06;100.00
54042;BME280;41156;51.508;5.406;2023-03-26T08:42:32;100039.75;;;8.07;100.00
54042;BME280;41156;51.508;5.406;2023-03-26T08:48:57;100037.00;;;8.14;100.00
54042;BME280;41156;51.508;5.406;2023-03-26T09:06:00;100028.31;;;8.37;100.00
54042;BME280;41156;51.508;5.406;2023-03-26T09:09:39;100034.09;;;8.41;100.00
54042;BME280;41156;51.508;5.406;2023-03-26T09:29:37;100028.72;;;8.41;100.00
54042;BME280;41156;51.508;5.406;2023-03-26T09:43:58;100032.34;;;8.28;100.00
54042;BME280;41156;51.508;5.406;2023-03-26T09:53:05;100031.66;;;8.07;100.00
54042;BME280;41156;51.508;5.406;2023-03-26T09:56:17;100030.84;;;8.07;100.00
54042;BME280;41156;51.508;5.406;2023-03-26T10:02:50;100033.00;;;8.23;100.00
54042;BME280;41156;51.508;5.406;2023-03-26T10:09:35;100034.59;;;8.31;100.00
54042;BME280;41156;51.508;5.406;2023-03-26T10:12:49;100038.66;;;8.40;100.00
54042;BME280;41156;51.508;5.406;2023-03-26T10:22:59;100036.97;;;8.46;100.00
54042;BME280;41156;51.508;5.406;2023-03-26T10:30:04;100034.53;;;8.44;100.00
54042;BME280;41156;51.508;5.406;2023-03-26T10:36:31;100051.00;;;8.55;100.00
54042;BME280;41156;51.508;5.406;2023-03-26T10:56:33;100056.72;;;8.83;100.00
54042;BME280;41156;51.508;5.406;2023-03-26T10:59:35;100060.03;;;8.85;100.00
54042;BME280;41156;51.508;5.406;2023-03-26T11:02:45;100056.88;;;8.88;100.00
54042;BME280;41156;51.508;5.406;2023-03-26T11:06:03;100057.63;;;8.96;100.00
54042;BME280;41156;51.508;5.406;2023-03-26T11:19:08;100066.94;;;9.00;100.00
54042;BME280;41156;51.508;5.406;2023-03-26T11:25:55;100067.97;;;8.99;100.00
54042;BME280;41156;51.508;5.406;2023-03-26T11:32:21;100073.44;;;9.11;100.00
54042;BME280;41156;51.508;5.406;2023-03-26T11:35:32;100078.69;;;9.24;100.00
54042;BME280;41156;51.508;5.406;2023-03-26T11:38:43;100080.41;;;9.37;100.00
54042;BME280;41156;51.508;5.406;2023-03-26T11:41:45;100081.00;;;9.39;100.00
54042;BME280;41156;51.508;5.406;2023-03-26T11:44:56;100088.19;;;9.45;100.00
54042;BME280;41156;51.508;5.406;2023-03-26T11:48:03;100090.31;;;9.43;100.00
54042;BME280;41156;51.508;5.406;2023-03-26T11:51:11;100090.75;;;9.40;100.00
54042;BME280;41156;51.508;5.406;2023-03-26T11:54:14;100091.34;;;9.42;100.00
54042;BME280;41156;51.508;5.406;2023-03-26T11:57:21;100093.22;;;9.41;100.00
54042;BME280;41156;51.508;5.406;2023-03-26T12:00:25;100086.19;;;9.40;100.00
54042;BME280;41156;51.508;5.406;2023-03-26T12:03:26;100103.88;;;9.36;100.00
54042;BME280;41156;51.508;5.406;2023-03-26T12:06:29;100095.84;;;9.30;100.00
54042;BME280;41156;51.508;5.406;2023-03-26T12:09:35;100100.66;;;9.28;100.00
54042;BME280;41156;51.508;5.406;2023-03-26T12:12:40;100103.16;;;9.22;100.00
54042;BME280;41156;51.508;5.406;2023-03-26T12:15:42;100098.47;;;9.18;100.00
54042;BME280;41156;51.508;5.406;2023-03-26T12:18:44;100102.19;;;9.17;100.00
54042;BME280;41156;51.508;5.406;2023-03-26T12:21:50;100107.22;;;9.13;100.00
54042;BME280;41156;51.508;5.406;2023-03-26T12:25:12;100105.94;;;9.16;100.00
54042;BME280;41156;51.508;5.406;2023-03-26T12:28:18;100098.63;;;9.23;100.00
54042;BME280;41156;51.508;5.406;2023-03-26T12:31:18;100112.91;;;9.42;100.00
54042;BME280;41156;51.508;5.406;2023-03-26T12:34:21;100109.09;;;9.50;100.00
54042;BME280;41156;51.508;5.406;2023-03-26T12:37:39;100117.53;;;9.72;100.00
54042;BME280;41156;51.508;5.406;2023-03-26T12:40:42;100118.31;;;9.91;100.00
54042;BME280;41156;51.508;5.406;2023-03-26T12:43:49;100121.00;;;10.09;100.00
54042;BME280;41156;51.508;5.406;2023-03-26T12:46:49;100119.25;;;10.15;100.00
54042;BME280;41156;51.508;5.406;2023-03-26T12:49:53;100124.19;;;10.18;100.00
54042;BME280;41156;51.508;5.406;2023-03-26T12:53:13;100119.69;;;10.12;100.00
54042;BME280;41156;51.508;5.406;2023-03-26T12:56:29;100124.28;;;10.11;100.00
54042;BME280;41156;51.508;5.406;2023-03-26T13:06:40;100125.38;;;10.22;100.00
54042;BME280;41156;51.508;5.406;2023-03-26T13:16:54;100131.88;;;10.03;100.00
54042;BME280;41156;51.508;5.406;2023-03-26T13:20:26;100134.50;;;9.91;100.00
54042;BME280;41156;51.508;5.406;2023-03-26T13:36:59;100145.03;;;9.80;100.00
54042;BME280;41156;51.508;5.406;2023-03-26T13:40:15;100140.94;;;9.78;100.00
54042;BME280;41156;51.508;5.406;2023-03-26T13:46:43;100160.50;;;9.55;100.00
54042;BME280;41156;51.508;5.406;2023-03-26T13:49:53;100161.75;;;9.34;100.00
54042;BME280;41156;51.508;5.406;2023-03-26T13:52:59;100164.03;;;9.12;100.00
54042;BME280;41156;51.508;5.406;2023-03-26T13:56:01;100173.56;;;8.89;100.00
54042;BME280;41156;51.508;5.406;2023-03-26T13:59:10;100173.44;;;8.77;100.00
54042;BME280;41156;51.508;5.406;2023-03-26T14:02:35;100181.38;;;8.72;100.00
54042;BME280;41156;51.508;5.406;2023-03-26T14:05:46;100183.47;;;8.70;100.00
54042;BME280;41156;51.508;5.406;2023-03-26T14:08:57;100185.94;;;8.72;100.00
54042;BME280;41156;51.508;5.406;2023-03-26T14:12:11;100197.47;;;8.79;100.00
54042;BME280;41156;51.508;5.406;2023-03-26T14:15:28;100196.19;;;8.88;100.00
54042;BME280;41156;51.508;5.406;2023-03-26T14:18:46;100200.72;;;8.87;100.00
54042;BME280;41156;51.508;5.406;2023-03-26T14:25:19;100213.69;;;8.72;100.00
54042;BME280;41156;51.508;5.406;2023-03-26T14:31:54;100215.31;;;8.41;100.00
54042;BME280;41156;51.508;5.406;2023-03-26T14:35:36;100216.38;;;8.33;100.00
54042;BME280;41156;51.508;5.406;2023-03-26T14:41:52;100230.84;;;8.39;100.00
54042;BME280;41156;51.508;5.406;2023-03-26T14:48:37;100255.91;;;8.46;100.00
54042;BME280;41156;51.508;5.406;2023-03-26T14:51:53;100248.88;;;8.45;100.00
54042;BME280;41156;51.508;5.406;2023-03-26T14:55:00;100260.91;;;8.36;100.00
54042;BME280;41156;51.508;5.406;2023-03-26T15:11:56;100287.38;;;8.46;100.00
54042;BME280;41156;51.508;5.406;2023-03-26T15:15:29;100292.56;;;8.41;100.00
54042;BME280;41156;51.508;5.406;2023-03-26T15:22:18;100301.84;;;8.58;100.00
54042;BME280;41156;51.508;5.406;2023-03-26T15:29:11;100316.38;;;8.50;100.00
54042;BME280;41156;51.508;5.406;2023-03-26T15:36:10;100323.84;;;8.42;100.00
54042;BME280;41156;51.508;5.406;2023-03-26T15:43:01;100338.16;;;8.29;100.00
54042;BME280;41156;51.508;5.406;2023-03-26T15:49:20;100350.63;;;8.17;100.00
54042;BME280;41156;51.508;5.406;2023-03-26T16:02:36;100372.97;;;8.17;100.00
54042;BME280;41156;51.508;5.406;2023-03-26T16:08:51;100381.03;;;8.24;100.00
54042;BME280;41156;51.508;5.406;2023-03-26T16:11:59;100386.41;;;8.24;100.00
54042;BME280;41156;51.508;5.406;2023-03-26T16:24:45;100408.16;;;8.15;100.00
54042;BME280;41156;51.508;5.406;2023-03-26T16:34:24;100439.06;;;7.93;100.00
54042;BME280;41156;51.508;5.406;2023-03-26T16:37:35;100453.94;;;7.89;100.00
54042;BME280;41156;51.508;5.406;2023-03-26T16:40:50;100454.53;;;7.84;100.00
54042;BME280;41156;51.508;5.406;2023-03-26T16:44:01;100470.06;;;7.75;100.00
54042;BME280;41156;51.508;5.406;2023-03-26T16:47:18;100478.75;;;7.71;100.00
54042;BME280;41156;51.508;5.406;2023-03-26T17:00:29;100515.34;;;7.58;100.00
54042;BME280;41156;51.508;5.406;2023-03-26T17:03:50;100523.41;;;7.52;100.00
54042;BME280;41156;51.508;5.406;2023-03-26T17:14:41;100551.47;;;7.36;100.00
54042;BME280;41156;51.508;5.406;2023-03-26T17:21:15;100569.63;;;7.27;100.00
54042;BME280;41156;51.508;5.406;2023-03-26T17:24:37;100571.88;;;7.23;100.00
54042;BME280;41156;51.508;5.406;2023-03-26T17:31:22;100599.13;;;7.14;100.00
54042;BME280;41156;51.508;5.406;2023-03-26T17:37:44;100603.28;;;7.16;100.00
54042;BME280;41156;51.508;5.406;2023-03-26T17:43:50;100620.63;;;7.14;100.00
54042;BME280;41156;51.508;5.406;2023-03-26T17:46:54;100629.25;;;7.09;100.00
54042;BME280;41156;51.508;5.406;2023-03-26T17:50:00;100636.25;;;7.03;100.00
54042;BME280;41156;51.508;5.406;2023-03-26T17:53:03;100640.16;;;7.01;100.00
54042;BME280;41156;51.508;5.406;2023-03-26T17:56:13;100642.41;;;6.97;100.00
54042;BME280;41156;51.508;5.406;2023-03-26T17:59:19;100656.41;;;6.93;100.00
54042;BME280;41156;51.508;5.406;2023-03-26T18:02:33;100669.19;;;6.84;100.00
54042;BME280;41156;51.508;5.406;2023-03-26T18:05:37;100671.81;;;6.77;100.00
54042;BME280;41156;51.508;5.406;2023-03-26T18:12:28;100689.28;;;6.66;100.00
54042;BME280;41156;51.508;5.406;2023-03-26T18:15:44;100696.25;;;6.61;100.00
54042;BME280;41156;51.508;5.406;2023-03-26T18:19:03;100692.84;;;6.52;100.00
54042;BME280;41156;51.508;5.406;2023-03-26T18:22:16;100705.47;;;6.52;100.00
54042;BME280;41156;51.508;5.406;2023-03-26T18:25:28;100712.41;;;6.46;100.00
54042;BME280;41156;51.508;5.406;2023-03-26T18:28:34;100729.56;;;6.45;100.00
54042;BME280;41156;51.508;5.406;2023-03-26T18:31:39;100737.97;;;6.42;100.00
54042;BME280;41156;51.508;5.406;2023-03-26T18:34:47;100741.88;;;6.39;100.00
54042;BME280;41156;51.508;5.406;2023-03-26T18:37:54;100752.78;;;6.38;100.00
54042;BME280;41156;51.508;5.406;2023-03-26T18:40:58;100760.19;;;6.36;100.00
54042;BME280;41156;51.508;5.406;2023-03-26T18:44:03;100765.50;;;6.29;100.00
54042;BME280;41156;51.508;5.406;2023-03-26T18:47:07;100769.41;;;6.26;100.00
54042;BME280;41156;51.508;5.406;2023-03-26T18:50:14;100793.66;;;6.18;100.00
54042;BME280;41156;51.508;5.406;2023-03-26T18:53:18;100796.06;;;6.13;100.00
54042;BME280;41156;51.508;5.406;2023-03-26T18:56:27;100801.81;;;6.10;100.00
54042;BME280;41156;51.508;5.406;2023-03-26T18:59:31;100810.59;;;6.04;100.00
54042;BME280;41156;51.508;5.406;2023-03-26T19:02:34;100815.50;;;6.00;100.00
54042;BME280;41156;51.508;5.406;2023-03-26T19:05:35;100818.88;;;5.94;100.00
54042;BME280;41156;51.508;5.406;2023-03-26T19:08:37;100828.69;;;5.87;100.00
54042;BME280;41156;51.508;5.406;2023-03-26T19:11:39;100830.91;;;5.83;100.00
54042;BME280;41156;51.508;5.406;2023-03-26T19:14:53;100848.19;;;5.81;100.00
54042;BME280;41156;51.508;5.406;2023-03-26T19:17:57;100851.41;;;5.76;100.00
54042;BME280;41156;51.508;5.406;2023-03-26T19:21:02;100851.97;;;5.71;100.00
54042;BME280;41156;51.508;5.406;2023-03-26T19:24:04;100857.34;;;5.71;100.00
54042;BME280;41156;51.508;5.406;2023-03-26T19:27:04;100875.44;;;5.69;100.00
54042;BME280;41156;51.508;5.406;2023-03-26T19:30:05;100882.84;;;5.67;100.00
54042;BME280;41156;51.508;5.406;2023-03-26T19:33:17;100878.31;;;5.68;100.00
54042;BME280;41156;51.508;5.406;2023-03-26T19:36:19;100889.22;;;5.66;100.00
54042;BME280;41156;51.508;5.406;2023-03-26T19:39:24;100901.13;;;5.64;100.00
54042;BME280;41156;51.508;5.406;2023-03-26T19:42:27;100904.19;;;5.61;100.00
54042;BME280;41156;51.508;5.406;2023-03-26T19:45:33;100914.06;;;5.60;100.00
54042;BME280;41156;51.508;5.406;2023-03-26T19:48:33;100909.19;;;5.64;100.00
54042;BME280;41156;51.508;5.406;2023-03-26T19:51:36;100923.78;;;5.61;100.00
54042;BME280;41156;51.508;5.406;2023-03-26T19:58:08;100933.66;;;5.61;100.00
54042;BME280;41156;51.508;5.406;2023-03-26T20:01:17;100933.84;;;5.59;100.00
54042;BME280;41156;51.508;5.406;2023-03-26T20:04:18;100939.03;;;5.61;100.00
54042;BME280;41156;51.508;5.406;2023-03-26T20:07:20;100952.44;;;5.61;100.00
54042;BME280;41156;51.508;5.406;2023-03-26T20:10:21;100956.16;;;5.60;100.00
54042;BME280;41156;51.508;5.406;2023-03-26T20:13:21;100968.88;;;5.57;100.00
54042;BME280;41156;51.508;5.406;2023-03-26T20:16:30;100965.91;;;5.52;100.00
54042;BME280;41156;51.508;5.406;2023-03-26T20:19:32;100980.81;;;5.55;100.00
54042;BME280;41156;51.508;5.406;2023-03-26T20:22:34;100979.47;;;5.51;100.00
54042;BME280;41156;51.508;5.406;2023-03-26T20:25:34;100977.16;;;5.48;100.00
54042;BME280;41156;51.508;5.406;2023-03-26T20:28:35;100987.88;;;5.48;100.00
54042;BME280;41156;51.508;5.406;2023-03-26T20:31:35;100990.25;;;5.43;100.00
54042;BME280;41156;51.508;5.406;2023-03-26T20:34:36;100991.44;;;5.40;100.00
54042;BME280;41156;51.508;5.406;2023-03-26T20:37:37;101005.06;;;5.30;100.00
54042;BME280;41156;51.508;5.406;2023-03-26T20:40:38;101013.97;;;5.23;100.00
54042;BME280;41156;51.508;5.406;2023-03-26T20:43:38;101027.25;;;5.16;100.00
54042;BME280;41156;51.508;5.406;2023-03-26T20:46:39;101026.44;;;5.07;100.00